Avoca, PA

2:33 PM EDT on June 02, 2015 (GMT -0400)
West Wyoming | | Change Station
CLOSE
Current Station
Personal Weather Station
Location: Wyoming, PA
Elevation: 745 ft
Nearby Weather Stations

Elev 745 ft 41.32 °N, 75.85 °W | Updated 14 minutes ago

Light Rain
Light Rain
57.4 °F
Feels Like 57.4 °F
N
0.0
Wind Variable Wind from SSW

Today
High -- | Low -- °F
--% Chance of Precip.
Yesterday
High -- | Low -- °F
Precip. -- in
5:31 AM 8:30 PM
Full, 100% visible
Pressure 30.15 in
Visibility 9.0 miles
Clouds Mostly Cloudy 1500 ft
Overcast 2500 ft
Dew Point 56 °F
Humidity 96%
Rainfall 0.00 in
Snow Depth Not available.
UV 3 out of 12
Pollen .90 out of 12
Air Quality Not available.
Flu Activity Sporadic
METAR KAVP 021754Z 00000KT 9SM -RA BKN015 OVC025 14/11 A3015

More Conditions Fewer Conditions

Pressure 30.15 in
Visibility 9.0 miles
Clouds Mostly Cloudy 1500 ft
Overcast 2500 ft
Dew Point 56 °F
Humidity 96%
Rainfall 0.00 in
Snow Depth Not available.
UV 3 out of 12
Pollen .90 out of 12
Air Quality Not available.
Flu Activity Sporadic
METAR KAVP 021754Z 00000KT 9SM -RA BKN015 OVC025 14/11 A3015

More Conditions Fewer Conditions

10-Day Weather Forecast

×

Almanac

Astronomy

Jun. 02, 2015 Rise Set
Actual Time
Civil Twilight
Nautical Twilight
Astronomical Twilight
Moon
Length of Visible Light
Length of Day
Tomorrow will be .
, % of the Moon is Illuminated

Today's Extremes

State Highs State Lows

Community

WunderPhotos

Upload Photos

1,825,997 photos uploaded!

WunderBlogs® & News

Nearby

Air Quality

  Air Quality AQ Index Pollutant
Not available.

Snow Depth

Station Depth Elevation

Earthquake Activity

City Distance Mag. Time & Date
Minimum magnitude displayed is 2.5.

Coastal Water Temperatures

Place Temperature

Stations

Nearby Weather Stations

Station Location Temp. Windchill Dew Point Humidity Wind Precip. Elev Updated Type